Time;durP1;ratioP1;P1;durP2;ratioP2;P2;SDS_P1;SDS_P2;PMS_P1;PMS_P2;Temp;Humidity;BMP_temperature;BMP_pressure;BME280_temperature;BME280_humidity;BME280_pressure;Samples;Min_cycle;Max_cycle;Signal;HPM_P1;HPM_P2
2022/09/15 00:02:08;;;;;;;2.83;0.80;;;;;;;17.28;61.48;100709.56;5063718;28;20508;-66
2022/09/15 00:04:47;;;;;;;4.80;1.00;;;;;;;17.41;60.78;100710.81;5063644;28;20306;-67
2022/09/15 00:07:28;;;;;;;3.93;1.10;;;;;;;17.48;60.47;100703.53;5061094;28;20368;-67
2022/09/15 00:10:12;;;;;;;7.57;1.03;;;;;;;17.48;59.65;100680.59;5063992;28;20334;-65
2022/09/15 00:13:04;;;;;;;2.60;0.97;;;;;;;17.62;59.69;100683.59;5063117;28;20283;-66
2022/09/15 00:15:58;;;;;;;6.82;1.08;;;;;;;17.86;60.68;100680.91;5063974;28;20319;-66
2022/09/15 00:18:52;;;;;;;3.47;1.03;;;;;;;18.01;60.15;100677.66;5062859;28;20076;-67
2022/09/15 00:21:58;;;;;;;4.83;1.10;;;;;;;18.05;57.95;100684.56;5063262;28;20299;-65
2022/09/15 00:24:43;;;;;;;8.47;1.63;;;;;;;17.95;56.05;100656.75;5063620;28;20319;-66
2022/09/15 00:27:31;;;;;;;9.80;1.00;;;;;;;17.97;55.29;100670.78;5045510;28;20820;-65
2022/09/15 00:30:06;;;;;;;4.73;0.80;;;;;;;17.89;55.46;100673.72;5062366;28;20279;-66
2022/09/15 00:32:52;;;;;;;5.47;0.80;;;;;;;18.09;57.56;100675.53;5032068;28;20298;-65
2022/09/15 00:35:44;;;;;;;2.93;0.87;;;;;;;18.16;56.40;100676.16;5032170;28;20318;-68
2022/09/15 00:38:26;;;;;;;4.03;0.97;;;;;;;18.18;56.91;100669.03;5062792;28;20287;-67
2022/09/15 00:41:14;;;;;;;4.07;0.90;;;;;;;18.27;57.12;100667.78;5063615;28;20302;-67
2022/09/15 00:44:10;;;;;;;1.30;0.60;;;;;;;18.40;55.30;100669.00;5063753;28;20350;-64
2022/09/15 00:46:57;;;;;;;2.57;0.70;;;;;;;18.47;53.79;100675.75;5063505;28;20337;-64
2022/09/15 00:49:56;;;;;;;4.27;0.90;;;;;;;18.42;54.23;100672.44;5035257;28;20310;-66
2022/09/15 00:53:10;;;;;;;2.50;0.83;;;;;;;18.52;54.51;100676.41;5063570;28;20592;-66
2022/09/15 00:55:56;;;;;;;0.83;0.60;;;;;;;18.14;54.29;100603.09;5062809;28;20564;-66
2022/09/15 01:01:56;;;;;;;4.07;0.90;;;;;;;18.43;53.96;100653.00;5063249;28;20341;-66
2022/09/15 01:07:45;;;;;;;2.27;0.83;;;;;;;18.63;52.41;100659.22;5071373;28;20389;-65
2022/09/15 01:10:45;;;;;;;12.18;1.00;;;;;;;18.81;53.28;100652.28;5075711;28;20414;-65
2022/09/15 01:13:29;;;;;;;1.80;0.60;;;;;;;19.05;53.67;100660.94;5062269;28;20056;-64
2022/09/15 01:16:29;;;;;;;4.80;1.17;;;;;;;18.84;52.93;100631.81;5062741;28;20417;-65
2022/09/15 01:19:40;;;;;;;5.87;1.17;;;;;;;19.18;51.53;100654.13;5063136;28;20280;-64
2022/09/15 01:22:34;;;;;;;6.43;0.80;;;;;;;18.88;52.23;100591.03;5063167;28;20326;-66
2022/09/15 01:25:30;;;;;;;3.57;0.80;;;;;;;19.30;51.78;100635.03;5063224;28;20314;-65
2022/09/15 01:29:05;;;;;;;4.77;0.90;;;;;;;19.43;52.13;100618.53;5063651;28;20387;-65
2022/09/15 01:35:02;;;;;;;2.53;0.90;;;;;;;19.50;49.81;100598.78;5024212;28;20342;-65
2022/09/15 01:37:40;;;;;;;3.90;0.70;;;;;;;19.67;49.50;100628.00;5023717;28;20323;-65
2022/09/15 01:40:20;;;;;;;3.78;0.60;;;;;;;19.66;47.73;100631.53;5024740;28;20057;-64
2022/09/15 01:43:12;;;;;;;2.37;0.67;;;;;;;19.50;48.41;100596.13;5024919;28;20050;-68
2022/09/15 01:46:00;;;;;;;7.07;0.97;;;;;;;19.72;49.28;100610.09;5019621;28;20289;-67
2022/09/15 01:48:50;;;;;;;5.13;0.90;;;;;;;19.92;49.68;100608.22;5024374;28;20485;-66
2022/09/15 01:51:44;;;;;;;4.70;1.00;;;;;;;20.04;46.73;100610.25;5023201;28;20293;-62
2022/09/15 01:54:38;;;;;;;1.97;0.67;;;;;;;20.06;47.80;100607.53;5024109;28;20277;-66
2022/09/15 01:57:23;;;;;;;7.47;0.93;;;;;;;20.09;48.06;100602.94;5022921;28;20285;-64
2022/09/15 02:00:24;;;;;;;4.03;0.90;;;;;;;20.15;46.63;100597.31;5023425;28;20281;-64
2022/09/15 02:03:05;;;;;;;4.70;0.60;;;;;;;20.17;47.80;100599.91;5024052;28;20340;-64
2022/09/15 02:06:06;;;;;;;3.13;0.90;;;;;;;20.15;48.11;100586.72;4995242;28;20562;-66
2022/09/15 02:08:59;;;;;;;1.13;0.63;;;;;;;20.22;49.03;100577.50;5024058;28;20324;-65
2022/09/15 02:11:48;;;;;;;2.27;0.70;;;;;;;20.40;49.08;100580.16;5022763;28;20046;-67
2022/09/15 02:14:43;;;;;;;2.47;0.80;;;;;;;20.32;50.17;100561.09;5024380;28;20308;-66
2022/09/15 02:17:30;;;;;;;4.03;0.87;;;;;;;20.46;49.73;100572.69;5024580;28;20280;-68
2022/09/15 02:20:15;;;;;;;3.47;0.87;;;;;;;20.65;48.56;100574.44;5023771;28;20317;-67
2022/09/15 02:23:03;;;;;;;5.30;0.70;;;;;;;20.70;49.22;100560.91;5010645;28;20343;-67
2022/09/15 02:25:55;;;;;;;3.27;0.83;;;;;;;20.71;48.45;100567.94;5065430;28;20830;-65
2022/09/15 02:28:41;;;;;;;2.13;0.67;;;;;;;20.54;48.97;100535.13;5063336;28;20311;-62
2022/09/15 02:34:17;;;;;;;2.27;0.77;;;;;;;20.76;48.73;100560.56;5049735;28;20470;-64
2022/09/15 02:37:10;;;;;;;3.93;0.80;;;;;;;20.83;48.99;100559.31;5065427;28;20290;-64
2022/09/15 02:40:18;;;;;;;2.83;0.70;;;;;;;20.84;49.16;100553.03;5065185;28;20299;-64
2022/09/15 02:43:04;;;;;;;4.53;0.80;;;;;;;20.74;49.31;100526.13;5064166;28;20288;-64
2022/09/15 02:45:52;;;;;;;2.63;0.90;;;;;;;20.71;49.10;100509.50;5014135;28;20317;-65
2022/09/15 02:48:38;;;;;;;2.80;0.87;;;;;;;20.88;48.88;100539.50;5064462;28;20339;-63
2022/09/15 02:51:13;;;;;;;1.77;0.90;;;;;;;20.97;49.96;100535.50;5032650;28;20292;-64
2022/09/15 02:53:54;;;;;;;4.47;0.90;;;;;;;20.94;49.90;100527.69;5031821;28;20306;-67
2022/09/15 02:56:48;;;;;;;3.57;1.00;;;;;;;20.94;50.61;100514.41;5064899;28;20071;-65
2022/09/15 03:02:42;;;;;;;14.87;1.20;;;;;;;21.22;48.63;100526.16;5065414;28;20287;-68
2022/09/15 03:05:25;;;;;;;4.50;0.93;;;;;;;21.06;48.22;100516.38;5065074;28;20294;-63
2022/09/15 03:08:20;;;;;;;15.13;1.40;;;;;;;21.19;49.16;100515.69;5064834;28;20334;-67
2022/09/15 03:11:05;;;;;;;7.20;1.10;;;;;;;21.27;49.02;100513.47;5029932;28;20302;-64
2022/09/15 03:13:50;;;;;;;7.10;1.00;;;;;;;21.40;49.23;100511.84;5062580;28;20339;-63
2022/09/15 03:16:42;;;;;;;4.73;0.80;;;;;;;21.30;50.35;100476.94;5064762;28;20293;-66
2022/09/15 03:19:25;;;;;;;7.80;0.80;;;;;;;21.58;50.33;100509.06;5064836;28;20291;-67
2022/09/15 03:22:04;;;;;;;3.50;0.97;;;;;;;21.58;49.12;100506.41;5018882;28;20060;-66
2022/09/15 03:24:45;;;;;;;2.80;1.10;;;;;;;21.68;49.56;100496.94;5063107;28;20287;-68
2022/09/15 03:27:43;;;;;;;5.57;1.13;;;;;;;21.65;49.12;100502.44;5063498;28;20309;-64
2022/09/15 03:30:42;;;;;;;3.83;1.03;;;;;;;21.57;48.83;100499.38;5063344;28;20287;-64
2022/09/15 03:33:17;;;;;;;3.47;0.77;;;;;;;21.60;49.16;100493.88;5060963;28;20350;-62
2022/09/15 03:35:59;;;;;;;4.67;1.10;;;;;;;21.66;49.67;100490.84;5064566;28;20343;-66
2022/09/15 03:38:53;;;;;;;6.40;1.00;;;;;;;21.60;48.90;100477.94;5020956;28;20303;-67
2022/09/15 03:41:35;;;;;;;10.53;1.50;;;;;;;21.66;49.29;100477.56;5064297;28;20037;-66
2022/09/15 03:44:15;;;;;;;4.40;0.80;;;;;;;21.78;49.61;100460.03;5064364;28;20298;-63
2022/09/15 03:47:00;;;;;;;5.85;1.08;;;;;;;21.74;50.05;100469.97;5029336;28;20858;-65
2022/09/15 03:49:36;;;;;;;5.73;0.73;;;;;;;21.80;50.02;100469.63;4987832;28;20049;-64
2022/09/15 03:52:17;;;;;;;8.80;1.20;;;;;;;21.70;50.00;100460.50;5063195;28;20568;-69
2022/09/15 03:54:54;;;;;;;5.65;0.95;;;;;;;21.59;50.11;100441.66;5013120;28;20632;-66
2022/09/15 03:57:41;;;;;;;6.53;1.15;;;;;;;21.67;50.33;100452.69;5063684;28;20071;-68
2022/09/15 04:00:19;;;;;;;6.33;1.20;;;;;;;21.75;51.75;100445.97;5064176;28;20055;-64
2022/09/15 04:03:08;;;;;;;6.67;1.00;;;;;;;21.88;49.74;100440.75;5063999;28;20335;-65
2022/09/15 04:05:52;;;;;;;3.33;0.87;;;;;;;21.92;50.69;100447.59;5063836;28;20283;-66
2022/09/15 04:08:34;;;;;;;3.17;0.90;;;;;;;21.66;49.65;100424.38;5013006;28;20307;-62
2022/09/15 04:11:13;;;;;;;4.70;1.10;;;;;;;21.73;50.21;100444.34;5032882;28;20048;-66
2022/09/15 04:13:57;;;;;;;4.17;0.90;;;;;;;21.53;50.66;100413.63;5032612;28;20294;-66
2022/09/15 04:16:47;;;;;;;6.73;1.13;;;;;;;21.75;51.29;100439.78;5030886;28;20286;-62
2022/09/15 04:22:22;;;;;;;5.47;0.93;;;;;;;21.68;51.95;100417.16;5041697;28;20501;-63
2022/09/15 04:27:46;;;;;;;2.43;1.20;;;;;;;21.69;50.94;100441.03;5044096;28;20067;-69
2022/09/15 04:30:30;;;;;;;6.53;0.90;;;;;;;21.57;50.91;100436.44;5058654;28;20531;-66
2022/09/15 04:33:09;;;;;;;5.23;1.47;;;;;;;21.54;50.04;100442.78;5056863;28;20428;-66
2022/09/15 04:36:02;;;;;;;2.50;0.90;;;;;;;21.29;50.81;100421.19;5061197;28;20600;-65
2022/09/15 04:38:58;;;;;;;3.03;0.90;;;;;;;21.10;51.01;100394.84;5061687;28;20310;-65
2022/09/15 04:41:42;;;;;;;7.70;0.90;;;;;;;21.34;51.25;100451.03;5062167;28;20282;-66
2022/09/15 04:44:22;;;;;;;6.83;1.40;;;;;;;21.23;50.99;100442.84;5028694;28;20788;-63
2022/09/15 04:47:06;;;;;;;7.70;0.87;;;;;;;21.22;51.95;100451.75;5062044;28;20283;-65
2022/09/15 04:49:47;;;;;;;5.13;1.10;;;;;;;21.14;50.04;100453.97;5046154;28;20338;-68
2022/09/15 04:52:27;;;;;;;7.10;0.93;;;;;;;21.06;52.13;100449.97;5061868;28;20661;-69
2022/09/15 04:58:05;;;;;;;7.60;0.80;;;;;;;20.84;51.15;100457.44;5060631;28;20283;-69
2022/09/15 05:00:42;;;;;;;;;;;;;;;20.82;52.04;100462.00;5062824;28;20593;-68
2022/09/15 05:03:23;;;;;;;4.57;1.07;;;;;;;20.75;52.01;100465.94;5064255;28;19916;-63
2022/09/15 05:06:07;;;;;;;7.63;1.20;;;;;;;20.74;52.06;100472.16;5067204;28;20287;-65
2022/09/15 05:09:01;;;;;;;15.40;1.30;;;;;;;20.73;52.14;100475.78;5067371;28;20327;-63
2022/09/15 05:11:48;;;;;;;6.00;1.23;;;;;;;20.61;52.08;100472.84;5067030;28;20440;-66
2022/09/15 05:14:38;;;;;;;6.07;0.93;;;;;;;19.96;52.28;100384.38;5066558;28;20298;-64
2022/09/15 05:17:20;;;;;;;2.87;0.67;;;;;;;20.29;51.86;100476.34;5067021;28;20314;-67
2022/09/15 05:20:21;;;;;;;8.20;0.90;;;;;;;20.17;52.30;100476.06;5066976;28;20767;-61
2022/09/15 05:23:22;;;;;;;10.07;1.10;;;;;;;20.17;52.05;100473.41;5073035;28;20290;-65
2022/09/15 05:26:02;;;;;;;8.40;1.03;;;;;;;20.29;52.67;100481.66;5048162;28;20287;-68
2022/09/15 05:28:44;;;;;;;8.17;1.00;;;;;;;20.31;51.72;100477.13;5086178;28;20588;-65
2022/09/15 05:31:23;;;;;;;4.93;1.13;;;;;;;20.27;52.18;100481.75;5086755;28;20472;-64
2022/09/15 05:37:02;;;;;;;7.77;0.77;;;;;;;20.37;51.58;100500.69;5086428;28;20358;-65
2022/09/15 05:39:53;;;;;;;7.03;0.87;;;;;;;20.31;50.49;100501.84;5086665;28;20438;-68
2022/09/15 05:42:59;;;;;;;6.97;0.90;;;;;;;20.23;50.55;100499.63;5040892;28;20295;-67
2022/09/15 05:45:43;;;;;;;8.23;1.30;;;;;;;20.18;51.72;100493.69;5039654;28;20483;-66
2022/09/15 05:48:31;;;;;;;6.53;1.20;;;;;;;20.13;50.71;100514.31;5052001;28;20310;-64
2022/09/15 05:51:10;;;;;;;2.47;0.80;;;;;;;20.04;51.20;100509.47;5040894;28;20279;-66
2022/09/15 05:53:46;;;;;;;5.60;0.80;;;;;;;20.03;51.82;100513.06;5053721;28;20290;-65
2022/09/15 05:56:33;;;;;;;6.57;0.80;;;;;;;19.93;52.26;100511.81;5008474;28;20052;-65
2022/09/15 05:59:14;;;;;;;7.80;1.00;;;;;;;19.86;52.24;100510.41;5085779;28;20301;-63
2022/09/15 06:01:49;;;;;;;7.77;1.37;;;;;;;19.87;52.68;100528.03;5085210;28;20286;-63
2022/09/15 06:04:33;;;;;;;6.03;0.90;;;;;;;19.73;52.49;100503.09;5039720;28;20290;-63
2022/09/15 06:07:12;;;;;;;2.30;0.80;;;;;;;19.81;52.75;100519.47;5085425;28;20060;-67
2022/09/15 06:10:05;;;;;;;9.87;1.33;;;;;;;19.70;52.61;100511.19;5038010;28;20358;-66
2022/09/15 06:12:58;;;;;;;5.77;1.27;;;;;;;19.66;52.40;100514.06;5047842;28;20291;-65
2022/09/15 06:15:55;;;;;;;2.50;0.83;;;;;;;19.61;52.17;100512.47;5085138;28;20297;-63
2022/09/15 06:18:47;;;;;;;15.60;1.70;;;;;;;19.60;52.75;100516.06;5085786;28;20295;-65
2022/09/15 06:21:29;;;;;;;7.03;0.90;;;;;;;19.56;52.33;100524.25;5085749;28;20290;-64
2022/09/15 06:24:10;;;;;;;7.30;0.80;;;;;;;19.61;53.69;100530.19;5085323;28;20295;-65
2022/09/15 06:26:46;;;;;;;10.07;1.00;;;;;;;19.59;53.48;100532.03;5084606;28;20295;-70
2022/09/15 06:29:27;;;;;;;4.43;0.80;;;;;;;19.57;53.15;100525.97;5085704;28;20059;-64
2022/09/15 06:32:22;;;;;;;6.13;0.93;;;;;;;19.55;53.68;100527.84;5085762;28;20060;-70
2022/09/15 06:35:00;;;;;;;6.43;1.03;;;;;;;19.58;53.38;100533.00;5085612;28;20282;-67
2022/09/15 06:37:32;;;;;;;3.83;1.30;;;;;;;19.63;52.99;100536.25;5085957;28;20283;-64
2022/09/15 06:40:16;;;;;;;4.43;0.90;;;;;;;19.64;53.63;100537.97;5085101;28;20286;-63
2022/09/15 06:43:02;;;;;;;9.67;1.33;;;;;;;19.64;52.87;100535.31;5039329;28;20354;-64
2022/09/15 06:45:41;;;;;;;4.73;0.80;;;;;;;19.51;52.92;100537.72;5085305;28;20310;-67
2022/09/15 06:48:31;;;;;;;3.83;1.10;;;;;;;19.40;53.63;100546.22;5085382;28;20299;-67
2022/09/15 06:51:22;;;;;;;7.37;1.13;;;;;;;19.20;53.85;100525.13;5052690;28;20289;-64
2022/09/15 06:54:16;;;;;;;9.87;1.40;;;;;;;19.28;54.54;100541.50;5084853;28;20291;-65
2022/09/15 06:57:22;;;;;;;9.83;1.07;;;;;;;19.30;54.56;100559.97;5084861;28;20275;-70
2022/09/15 07:00:11;;;;;;;5.30;1.17;;;;;;;19.30;54.65;100560.84;5085050;28;20619;-64
2022/09/15 07:02:58;;;;;;;2.47;0.80;;;;;;;19.29;54.29;100559.09;5084831;28;20286;-65
2022/09/15 07:05:53;;;;;;;3.60;1.00;;;;;;;19.25;54.29;100556.69;5083671;28;20302;-66
2022/09/15 07:08:37;;;;;;;17.37;1.37;;;;;;;19.23;54.41;100559.41;5082341;28;20293;-63
2022/09/15 07:11:34;;;;;;;4.53;0.93;;;;;;;19.21;55.36;100555.97;5084880;28;20274;-64
2022/09/15 07:14:41;;;;;;;9.47;1.40;;;;;;;19.17;54.88;100555.25;5083659;28;20291;-64
2022/09/15 07:17:22;;;;;;;11.68;1.10;;;;;;;19.11;55.36;100552.88;5082301;28;20286;-71
2022/09/15 07:20:03;;;;;;;17.07;1.17;;;;;;;19.06;55.56;100556.69;5084926;28;20079;-65
2022/09/15 07:22:46;;;;;;;6.67;1.03;;;;;;;19.01;55.79;100553.41;5084875;28;20278;-64
2022/09/15 07:25:35;;;;;;;13.80;1.40;;;;;;;18.96;55.75;100557.13;5023173;28;20298;-65
2022/09/15 07:31:09;;;;;;;3.83;0.90;;;;;;;18.77;56.22;100556.28;5036327;28;20314;-67
2022/09/15 07:33:47;;;;;;;10.07;2.03;;;;;;;18.68;56.25;100564.59;5064469;28;20299;-66
2022/09/15 07:36:35;;;;;;;21.27;1.90;;;;;;;18.61;56.99;100563.13;5064370;28;20283;-63
2022/09/15 07:39:26;;;;;;;13.27;1.53;;;;;;;18.57;57.57;100574.78;5031903;28;20283;-70
2022/09/15 07:42:15;;;;;;;20.83;2.37;;;;;;;18.48;57.75;100576.91;5063392;28;20276;-67
2022/09/15 07:45:05;;;;;;;5.80;1.27;;;;;;;18.36;57.97;100572.16;5064393;28;20345;-66
2022/09/15 07:50:29;;;;;;;13.67;1.30;;;;;;;18.11;58.95;100583.78;5063891;28;20469;-65
2022/09/15 07:53:10;;;;;;;21.87;1.70;;;;;;;18.00;59.38;100575.47;5063958;28;20344;-65
2022/09/15 07:56:04;;;;;;;14.63;1.37;;;;;;;17.86;59.82;100567.25;5064387;28;20332;-64
2022/09/15 08:01:47;;;;;;;17.57;1.40;;;;;;;17.69;61.29;100576.69;5064855;28;20284;-68
2022/09/15 08:04:43;;;;;;;16.07;1.63;;;;;;;17.58;62.08;100583.34;5063699;28;20569;-64
2022/09/15 08:10:16;;;;;;;14.30;1.20;;;;;;;16.90;64.39;100511.19;5063802;28;20367;-68
2022/09/15 08:13:26;;;;;;;10.93;1.37;;;;;;;17.17;66.62;100581.44;5063619;28;20311;-63
2022/09/15 08:16:14;;;;;;;7.17;1.20;;;;;;;17.12;67.73;100590.41;5063151;28;20390;-67
2022/09/15 08:18:53;;;;;;;19.83;1.90;;;;;;;16.69;68.64;100540.09;5063972;28;20287;-64
2022/09/15 08:21:48;;;;;;;12.73;1.77;;;;;;;16.87;69.50;100590.50;5046084;28;20302;-66
2022/09/15 08:27:39;;;;;;;29.00;2.10;;;;;;;16.60;71.50;100603.75;5081607;28;20059;-68
2022/09/15 08:30:39;;;;;;;15.80;1.73;;;;;;;16.49;72.39;100600.63;5083965;28;20299;-66
2022/09/15 08:33:26;;;;;;;11.23;1.80;;;;;;;16.37;73.19;100608.06;5083597;28;20306;-67
2022/09/15 08:36:26;;;;;;;11.23;1.40;;;;;;;16.26;73.87;100604.06;5083791;28;20329;-69
2022/09/15 08:39:10;;;;;;;28.23;4.47;;;;;;;16.01;74.69;100577.69;5087830;28;20346;-68
2022/09/15 08:41:52;;;;;;;15.25;1.80;;;;;;;15.99;75.08;100584.78;5038857;28;20291;-66
2022/09/15 08:44:44;;;;;;;6.23;1.20;;;;;;;16.02;75.44;100600.50;5052850;28;20060;-65
2022/09/15 08:47:31;;;;;;;33.27;3.63;;;;;;;16.00;75.56;100603.19;5085082;28;20283;-68
2022/09/15 08:50:34;;;;;;;114.43;7.13;;;;;;;15.82;77.05;100602.00;5087543;28;20650;-65
2022/09/15 08:53:15;;;;;;;34.53;2.90;;;;;;;15.61;78.15;100605.31;5006512;28;20313;-67
2022/09/15 08:58:54;;;;;;;16.30;1.60;;;;;;;15.14;80.13;100624.28;5087454;28;20439;-67
2022/09/15 09:02:43;;;;;;;6.73;1.37;;;;;;;14.99;80.83;100627.34;5056672;28;20286;-68
2022/09/15 09:05:58;;;;;;;20.38;1.90;;;;;;;14.93;81.35;100638.06;5005769;28;20635;-62
2022/09/15 09:09:29;;;;;;;10.07;2.33;;;;;;;14.77;82.00;100642.88;5087143;28;20094;-69
2022/09/15 09:12:39;;;;;;;8.87;1.53;;;;;;;14.62;82.73;100650.28;5086864;28;20306;-66
2022/09/15 09:15:41;;;;;;;28.70;2.17;;;;;;;14.36;83.13;100615.91;5078654;28;20388;-67
2022/09/15 09:22:06;;;;;;;18.73;4.00;;;;;;;14.40;83.98;100657.88;4966674;29;20354;-63
2022/09/15 09:24:44;;;;;;;7.13;3.20;;;;;;;14.23;84.22;100658.28;4985359;28;20356;-65
2022/09/15 09:27:47;;;;;;;17.50;8.70;;;;;;;14.13;84.79;100662.03;4986304;28;20352;-64
2022/09/15 09:30:33;;;;;;;56.17;31.80;;;;;;;13.99;85.59;100669.41;4986052;28;20306;-64
2022/09/15 09:33:29;;;;;;;21.23;8.70;;;;;;;13.99;85.79;100677.28;4955770;28;20131;-66
2022/09/15 09:36:22;;;;;;;13.27;3.97;;;;;;;13.57;86.09;100622.22;4986072;28;20057;-65
2022/09/15 09:39:08;;;;;;;;;;;;;;;13.80;86.64;100675.09;4985356;28;20290;-66
2022/09/15 09:41:55;;;;;;;12.40;4.97;;;;;;;13.69;86.93;100679.72;4986196;28;19917;-64
2022/09/15 09:44:36;;;;;;;17.80;6.82;;;;;;;13.57;87.23;100688.72;4982377;28;20060;-66
2022/09/15 09:47:28;;;;;;;32.75;10.73;;;;;;;13.47;88.02;100681.09;4985794;28;20086;-65
2022/09/15 09:50:30;;;;;;;11.93;6.38;;;;;;;13.06;88.41;100625.06;4985063;28;20256;-63
2022/09/15 09:53:29;;;;;;;10.68;4.80;;;;;;;13.29;88.45;100677.94;4985285;28;20089;-64
2022/09/15 09:56:25;;;;;;;7.18;4.10;;;;;;;13.30;88.71;100690.16;4983941;28;20058;-63
2022/09/15 09:59:07;;;;;;;9.27;4.68;;;;;;;13.30;88.88;100695.41;5043148;28;20060;-65
2022/09/15 10:02:14;;;;;;;12.60;5.05;;;;;;;13.36;88.77;100695.31;5065124;28;20087;-64
2022/09/15 10:05:19;;;;;;;29.25;5.25;;;;;;;13.25;88.65;100691.13;5063439;28;20138;-67
2022/09/15 10:13:59;;;;;;;25.02;2.95;;;;;;;13.31;89.25;100718.16;5045160;28;20065;-67
2022/09/15 10:16:40;;;;;;;17.83;2.15;;;;;;;13.29;89.17;100724.34;5046158;28;20072;-64
2022/09/15 10:19:18;;;;;;;16.42;2.35;;;;;;;13.27;89.30;100726.97;5045848;28;20075;-65
2022/09/15 10:22:01;;;;;;;18.30;2.33;;;;;;;12.84;89.25;100649.09;5045948;28;20049;-65
2022/09/15 10:24:48;;;;;;;24.58;2.50;;;;;;;13.21;89.47;100716.59;5062132;28;20092;-64
2022/09/15 10:27:36;;;;;;;49.83;4.07;;;;;;;13.25;89.40;100723.47;5065943;28;20049;-67
2022/09/15 10:30:39;;;;;;;27.13;2.45;;;;;;;13.18;89.23;100724.53;5021936;28;20075;-66
2022/09/15 10:33:35;;;;;;;14.57;2.80;;;;;;;12.86;89.41;100698.91;5064981;28;20313;-65
2022/09/15 10:40:43;;;;;;;5.88;2.03;;;;;;;12.75;90.71;100727.94;5070517;28;20049;-66
2022/09/15 10:47:01;;;;;;;4.40;1.65;;;;;;;12.62;91.51;100731.66;5071359;28;20060;-66
2022/09/15 10:50:07;;;;;;;4.97;1.90;;;;;;;12.57;91.78;100726.50;5068974;28;20571;-62
2022/09/15 10:52:59;;;;;;;2.70;1.20;;;;;;;12.47;92.30;100711.81;5069671;28;20066;-65
2022/09/15 10:56:11;;;;;;;4.07;1.27;;;;;;;12.64;92.12;100729.91;5071681;28;20076;-63
2022/09/15 11:02:54;;;;;;;3.30;1.23;;;;;;;12.47;91.93;100717.94;5020313;28;20967;-68
2022/09/15 11:06:08;;;;;;;8.95;1.52;;;;;;;12.68;91.91;100742.03;5063403;28;20055;-66
2022/09/15 11:09:19;;;;;;;6.50;1.50;;;;;;;12.72;91.02;100751.59;5067268;28;20053;-67
2022/09/15 11:12:28;;;;;;;4.22;1.50;;;;;;;12.67;90.86;100750.81;5071197;28;20060;-67
2022/09/15 11:15:44;;;;;;;25.75;3.35;;;;;;;12.58;91.07;100745.72;5071881;28;20111;-63
2022/09/15 11:18:46;;;;;;;18.92;3.03;;;;;;;12.66;90.87;100754.34;5029049;28;20045;-63
2022/09/15 11:21:31;;;;;;;9.30;2.40;;;;;;;12.51;90.73;100745.81;5050120;28;20060;-67
2022/09/15 11:24:49;;;;;;;5.63;1.90;;;;;;;12.15;90.70;100699.25;5070891;28;20958;-64
2022/09/15 11:27:47;;;;;;;10.13;2.15;;;;;;;12.41;91.09;100759.13;5019979;28;20133;-64
2022/09/15 11:33:49;;;;;;;5.75;1.80;;;;;;;12.22;91.34;100750.66;5068827;28;20062;-63
2022/09/15 11:36:56;;;;;;;12.20;2.05;;;;;;;12.26;92.01;100768.94;5072559;28;20063;-62
2022/09/15 11:39:55;;;;;;;7.28;1.75;;;;;;;12.14;92.60;100765.66;5069885;28;20052;-63
2022/09/15 11:43:00;;;;;;;6.13;1.52;;;;;;;11.99;93.34;100761.50;5057595;28;20321;-64
2022/09/15 11:45:47;;;;;;;3.72;1.17;;;;;;;11.95;93.77;100765.88;5071865;28;20102;-63
2022/09/15 11:48:33;;;;;;;3.22;1.45;;;;;;;11.89;94.13;100766.00;5072143;28;20063;-65
2022/09/15 11:51:31;;;;;;;6.65;1.58;;;;;;;11.81;94.71;100762.59;5072169;28;20095;-64
2022/09/15 11:54:21;;;;;;;5.10;1.52;;;;;;;11.76;94.94;100764.41;5036372;28;20088;-65
2022/09/15 11:57:01;;;;;;;2.65;1.20;;;;;;;11.76;95.41;100753.94;5071117;28;20087;-67
2022/09/15 12:00:05;;;;;;;1.75;1.10;;;;;;;11.74;95.14;100745.22;5072478;28;20103;-65
2022/09/15 12:03:04;;;;;;;3.38;1.23;;;;;;;11.78;95.04;100754.75;5071662;28;20588;-65
2022/09/15 12:05:50;;;;;;;1.75;1.20;;;;;;;11.69;95.34;100736.56;5071322;28;20060;-65
2022/09/15 12:08:38;;;;;;;4.53;1.10;;;;;;;11.75;95.36;100752.19;5069133;28;20326;-64
2022/09/15 12:11:25;;;;;;;1.35;1.05;;;;;;;11.63;95.42;100733.16;5069672;28;20078;-66
2022/09/15 12:17:11;;;;;;;2.22;1.30;;;;;;;11.75;95.74;100746.94;5069514;28;20175;-65
2022/09/15 12:20:00;;;;;;;4.63;1.52;;;;;;;11.75;95.77;100741.69;5071501;28;20059;-67
2022/09/15 12:22:47;;;;;;;1.38;0.98;;;;;;;11.54;95.58;100712.31;5068344;28;20049;-68
2022/09/15 12:29:07;;;;;;;6.57;1.75;;;;;;;11.68;95.58;100734.81;5042843;28;20139;-64
2022/09/15 12:31:50;;;;;;;5.70;1.42;;;;;;;11.72;95.58;100747.00;5016982;28;20046;-66
2022/09/15 12:35:05;;;;;;;3.88;1.00;;;;;;;11.66;95.22;100742.72;5049947;28;20059;-65
2022/09/15 12:37:49;;;;;;;2.38;1.08;;;;;;;11.45;94.32;100751.69;5034306;28;20064;-66
2022/09/15 12:41:01;;;;;;;6.78;1.95;;;;;;;11.38;93.99;100763.09;5019207;28;20103;-66
2022/09/15 12:43:37;;;;;;;2.20;1.63;;;;;;;11.31;93.81;100751.84;5050494;28;20037;-65
2022/09/15 12:49:20;;;;;;;3.47;1.73;;;;;;;11.01;93.77;100768.75;5047642;28;20150;-66
2022/09/15 12:52:16;;;;;;;2.45;1.30;;;;;;;11.06;94.43;100790.50;5061887;28;20293;-67
2022/09/15 12:55:01;;;;;;;3.80;1.38;;;;;;;11.04;94.85;100788.78;5053433;28;20115;-67
2022/09/15 12:57:58;;;;;;;3.30;1.60;;;;;;;10.90;95.63;100762.75;5061514;28;20049;-65
2022/09/15 13:00:46;;;;;;;4.57;1.50;;;;;;;11.15;95.77;100803.47;5061892;28;20059;-67
2022/09/15 13:04:27;;;;;;;4.72;1.50;;;;;;;11.19;95.78;100809.53;5063456;28;20049;-65
2022/09/15 13:08:07;;;;;;;;;;;;;;;;;;;;;
2022/09/15 13:11:09;;;;;;;5.43;1.58;;;;;;;11.29;96.36;100805.09;5033070;28;20313;-66
2022/09/15 13:13:55;;;;;;;7.30;2.00;;;;;;;11.28;96.46;100800.72;5028409;28;20060;-67
2022/09/15 13:16:35;;;;;;;2.20;1.40;;;;;;;11.33;96.17;100812.00;5047416;28;20096;-64
2022/09/15 13:19:22;;;;;;;6.25;1.35;;;;;;;11.34;96.21;100813.75;5056303;28;20349;-71
2022/09/15 13:22:07;;;;;;;6.57;1.50;;;;;;;11.29;95.88;100816.41;5053971;28;20067;-66
2022/09/15 13:25:03;;;;;;;3.53;1.40;;;;;;;11.26;95.92;100815.56;5057294;28;20060;-67
2022/09/15 13:27:46;;;;;;;3.60;1.38;;;;;;;11.20;95.82;100816.50;5074843;28;20083;-66
2022/09/15 13:30:48;;;;;;;8.15;1.33;;;;;;;11.22;95.80;100823.44;5065145;28;20317;-69
2022/09/15 13:33:44;;;;;;;2.63;1.50;;;;;;;11.09;95.58;100816.59;5020098;28;20076;-66
2022/09/15 13:36:55;;;;;;;3.92;1.20;;;;;;;10.92;95.44;100823.75;5073194;28;20040;-66
2022/09/15 13:40:31;;;;;;;3.30;1.48;;;;;;;10.85;95.60;100830.75;5076340;28;20094;-65
2022/09/15 13:43:29;;;;;;;7.68;1.75;;;;;;;10.77;95.86;100829.97;5084177;28;20085;-65
2022/09/15 13:46:32;;;;;;;5.32;1.52;;;;;;;10.70;95.91;100821.28;5086497;28;20096;-68
2022/09/15 13:49:52;;;;;;;3.35;1.40;;;;;;;10.76;96.27;100836.94;5034931;28;20226;-64
2022/09/15 13:52:57;;;;;;;4.82;1.90;;;;;;;10.76;96.82;100836.94;5044478;28;20248;-64
2022/09/15 13:55:54;;;;;;;7.78;2.13;;;;;;;10.80;97.47;100845.63;5037165;28;20125;-66
2022/09/15 13:58:38;;;;;;;5.55;2.53;;;;;;;10.79;98.10;100846.50;5086659;28;20115;-66
2022/09/15 14:01:47;;;;;;;6.13;2.58;;;;;;;10.76;98.70;100842.19;5086511;28;20221;-65
2022/09/15 14:04:27;;;;;;;;;;;;;;;10.78;98.84;100839.53;5041683;28;20455;-69
2022/09/15 14:07:09;;;;;;;8.98;2.78;;;;;;;10.73;99.22;100836.97;5086460;28;19916;-65
2022/09/15 14:09:53;;;;;;;8.88;2.70;;;;;;;10.74;99.04;100862.22;5085820;28;20048;-65
2022/09/15 14:12:44;;;;;;;;;;;;;;;10.70;99.10;100862.25;5087143;28;20328;-67
2022/09/15 14:15:25;;;;;;;9.80;2.72;;;;;;;10.46;99.25;100838.03;5086079;28;20025;-68
2022/09/15 14:18:05;;;;;;;5.50;2.58;;;;;;;10.57;99.26;100857.09;5085047;28;20049;-65
2022/09/15 14:21:02;;;;;;;8.20;2.92;;;;;;;10.58;99.25;100864.09;5081600;28;20378;-66
2022/09/15 14:23:50;;;;;;;5.25;2.65;;;;;;;10.57;99.59;100867.56;5068033;28;20048;-65
2022/09/15 14:26:38;;;;;;;12.63;4.32;;;;;;;10.59;99.96;100867.56;5046170;28;20056;-68
2022/09/15 14:29:26;;;;;;;12.65;2.95;;;;;;;10.59;99.68;100870.19;5045787;28;20080;-67
2022/09/15 14:32:17;;;;;;;5.90;2.47;;;;;;;10.10;99.08;100807.75;4995238;28;20080;-67